sensor_id;sensor_type;location;lat;lon;timestamp;P1;durP1;ratioP1;P2;durP2;ratioP2
2313;SDS011;42279;51.388;7.000;2023-04-24T00:00:56;2.40;;;2.40;;
2313;SDS011;42279;51.388;7.000;2023-04-24T00:03:23;2.10;;;2.10;;
2313;SDS011;42279;51.388;7.000;2023-04-24T00:05:49;1.90;;;1.90;;
2313;SDS011;42279;51.388;7.000;2023-04-24T00:08:16;2.27;;;2.27;;
2313;SDS011;42279;51.388;7.000;2023-04-24T00:10:43;1.30;;;1.30;;
2313;SDS011;42279;51.388;7.000;2023-04-24T00:13:09;2.93;;;2.50;;
2313;SDS011;42279;51.388;7.000;2023-04-24T00:15:35;2.43;;;2.43;;
2313;SDS011;42279;51.388;7.000;2023-04-24T00:18:01;6.20;;;6.00;;
2313;SDS011;42279;51.388;7.000;2023-04-24T00:20:27;4.73;;;4.63;;
2313;SDS011;42279;51.388;7.000;2023-04-24T00:23:02;6.40;;;6.00;;
2313;SDS011;42279;51.388;7.000;2023-04-24T00:25:28;5.53;;;5.33;;
2313;SDS011;42279;51.388;7.000;2023-04-24T00:27:54;5.90;;;5.67;;
2313;SDS011;42279;51.388;7.000;2023-04-24T00:30:20;6.10;;;5.90;;
2313;SDS011;42279;51.388;7.000;2023-04-24T00:32:46;7.37;;;7.10;;
2313;SDS011;42279;51.388;7.000;2023-04-24T00:35:12;4.63;;;4.53;;
2313;SDS011;42279;51.388;7.000;2023-04-24T00:37:39;5.73;;;5.57;;
2313;SDS011;42279;51.388;7.000;2023-04-24T00:40:05;6.17;;;5.97;;
2313;SDS011;42279;51.388;7.000;2023-04-24T00:42:32;24.87;;;23.73;;
2313;SDS011;42279;51.388;7.000;2023-04-24T00:44:58;23.40;;;22.20;;
2313;SDS011;42279;51.388;7.000;2023-04-24T00:47:24;10.10;;;9.70;;
2313;SDS011;42279;51.388;7.000;2023-04-24T00:49:51;17.17;;;16.37;;
2313;SDS011;42279;51.388;7.000;2023-04-24T00:52:17;6.37;;;6.27;;
2313;SDS011;42279;51.388;7.000;2023-04-24T00:54:46;8.27;;;7.93;;
2313;SDS011;42279;51.388;7.000;2023-04-24T00:57:17;8.03;;;4.67;;
2313;SDS011;42279;51.388;7.000;2023-04-24T00:59:45;4.53;;;4.43;;
2313;SDS011;42279;51.388;7.000;2023-04-24T01:02:30;4.80;;;4.60;;
2313;SDS011;42279;51.388;7.000;2023-04-24T01:04:59;4.00;;;3.80;;
2313;SDS011;42279;51.388;7.000;2023-04-24T01:07:25;4.07;;;3.97;;
2313;SDS011;42279;51.388;7.000;2023-04-24T01:09:52;5.00;;;4.90;;
2313;SDS011;42279;51.388;7.000;2023-04-24T01:12:18;5.30;;;5.20;;
2313;SDS011;42279;51.388;7.000;2023-04-24T01:14:44;4.23;;;4.13;;
2313;SDS011;42279;51.388;7.000;2023-04-24T01:17:11;3.10;;;3.00;;
2313;SDS011;42279;51.388;7.000;2023-04-24T01:19:37;4.23;;;4.13;;
2313;SDS011;42279;51.388;7.000;2023-04-24T01:22:08;3.10;;;2.97;;
2313;SDS011;42279;51.388;7.000;2023-04-24T01:24:34;4.10;;;4.00;;
2313;SDS011;42279;51.388;7.000;2023-04-24T01:27:00;6.33;;;6.03;;
2313;SDS011;42279;51.388;7.000;2023-04-24T01:29:26;6.80;;;6.50;;
2313;SDS011;42279;51.388;7.000;2023-04-24T01:31:52;6.87;;;6.57;;
2313;SDS011;42279;51.388;7.000;2023-04-24T01:34:18;6.40;;;6.20;;
2313;SDS011;42279;51.388;7.000;2023-04-24T01:36:45;4.80;;;4.50;;
2313;SDS011;42279;51.388;7.000;2023-04-24T01:39:11;2.23;;;2.23;;
2313;SDS011;42279;51.388;7.000;2023-04-24T01:41:37;2.67;;;2.63;;
2313;SDS011;42279;51.388;7.000;2023-04-24T01:44:03;2.63;;;2.53;;
2313;SDS011;42279;51.388;7.000;2023-04-24T01:46:29;3.27;;;3.27;;
2313;SDS011;42279;51.388;7.000;2023-04-24T01:48:56;4.73;;;3.10;;
2313;SDS011;42279;51.388;7.000;2023-04-24T01:51:23;5.50;;;5.00;;
2313;SDS011;42279;51.388;7.000;2023-04-24T01:53:49;13.43;;;12.60;;
2313;SDS011;42279;51.388;7.000;2023-04-24T01:56:15;7.17;;;6.87;;
2313;SDS011;42279;51.388;7.000;2023-04-24T01:58:41;28.60;;;26.57;;
2313;SDS011;42279;51.388;7.000;2023-04-24T02:01:08;7.40;;;7.13;;
2313;SDS011;42279;51.388;7.000;2023-04-24T02:03:34;18.10;;;16.67;;
2313;SDS011;42279;51.388;7.000;2023-04-24T02:06:00;12.10;;;11.30;;
2313;SDS011;42279;51.388;7.000;2023-04-24T02:08:26;9.63;;;8.97;;
2313;SDS011;42279;51.388;7.000;2023-04-24T02:10:52;11.10;;;10.10;;
2313;SDS011;42279;51.388;7.000;2023-04-24T02:13:18;10.03;;;9.43;;
2313;SDS011;42279;51.388;7.000;2023-04-24T02:15:44;8.20;;;7.60;;
2313;SDS011;42279;51.388;7.000;2023-04-24T02:18:10;9.83;;;9.13;;
2313;SDS011;42279;51.388;7.000;2023-04-24T02:20:37;7.40;;;6.90;;
2313;SDS011;42279;51.388;7.000;2023-04-24T02:23:03;10.30;;;9.50;;
2313;SDS011;42279;51.388;7.000;2023-04-24T02:25:30;9.90;;;9.07;;
2313;SDS011;42279;51.388;7.000;2023-04-24T02:27:55;10.60;;;9.67;;
2313;SDS011;42279;51.388;7.000;2023-04-24T02:30:21;8.37;;;7.57;;
2313;SDS011;42279;51.388;7.000;2023-04-24T02:32:48;6.50;;;6.20;;
2313;SDS011;42279;51.388;7.000;2023-04-24T02:35:14;8.97;;;6.10;;
2313;SDS011;42279;51.388;7.000;2023-04-24T02:37:40;7.77;;;7.17;;
2313;SDS011;42279;51.388;7.000;2023-04-24T02:40:06;6.93;;;6.43;;
2313;SDS011;42279;51.388;7.000;2023-04-24T02:42:32;7.00;;;6.40;;
2313;SDS011;42279;51.388;7.000;2023-04-24T02:44:58;7.40;;;6.90;;
2313;SDS011;42279;51.388;7.000;2023-04-24T02:47:24;11.67;;;7.87;;
2313;SDS011;42279;51.388;7.000;2023-04-24T02:49:50;8.23;;;7.30;;
2313;SDS011;42279;51.388;7.000;2023-04-24T02:52:16;8.20;;;7.60;;
2313;SDS011;42279;51.388;7.000;2023-04-24T02:54:42;7.77;;;7.10;;
2313;SDS011;42279;51.388;7.000;2023-04-24T02:57:08;8.37;;;7.63;;
2313;SDS011;42279;51.388;7.000;2023-04-24T02:59:34;9.63;;;8.73;;
2313;SDS011;42279;51.388;7.000;2023-04-24T03:02:00;13.33;;;11.40;;
2313;SDS011;42279;51.388;7.000;2023-04-24T03:04:26;11.23;;;10.23;;
2313;SDS011;42279;51.388;7.000;2023-04-24T03:06:55;10.03;;;9.23;;
2313;SDS011;42279;51.388;7.000;2023-04-24T03:09:21;14.80;;;13.47;;
2313;SDS011;42279;51.388;7.000;2023-04-24T03:11:47;13.33;;;12.33;;
2313;SDS011;42279;51.388;7.000;2023-04-24T03:14:14;13.07;;;11.53;;
2313;SDS011;42279;51.388;7.000;2023-04-24T03:16:40;12.53;;;11.50;;
2313;SDS011;42279;51.388;7.000;2023-04-24T03:19:06;15.03;;;13.53;;
2313;SDS011;42279;51.388;7.000;2023-04-24T03:21:32;16.03;;;14.50;;
2313;SDS011;42279;51.388;7.000;2023-04-24T03:23:58;15.47;;;13.53;;
2313;SDS011;42279;51.388;7.000;2023-04-24T03:26:24;12.33;;;11.13;;
2313;SDS011;42279;51.388;7.000;2023-04-24T03:28:50;26.80;;;24.30;;
2313;SDS011;42279;51.388;7.000;2023-04-24T03:31:16;11.60;;;10.70;;
2313;SDS011;42279;51.388;7.000;2023-04-24T03:33:42;23.17;;;21.00;;
2313;SDS011;42279;51.388;7.000;2023-04-24T03:36:08;11.93;;;10.83;;
2313;SDS011;42279;51.388;7.000;2023-04-24T03:38:34;19.90;;;17.30;;
2313;SDS011;42279;51.388;7.000;2023-04-24T03:41:00;16.20;;;12.03;;
2313;SDS011;42279;51.388;7.000;2023-04-24T03:43:26;11.40;;;7.57;;
2313;SDS011;42279;51.388;7.000;2023-04-24T03:45:52;14.90;;;12.47;;
2313;SDS011;42279;51.388;7.000;2023-04-24T03:48:18;11.33;;;10.33;;
2313;SDS011;42279;51.388;7.000;2023-04-24T03:50:44;11.47;;;10.53;;
2313;SDS011;42279;51.388;7.000;2023-04-24T03:53:10;11.70;;;10.50;;
2313;SDS011;42279;51.388;7.000;2023-04-24T03:55:36;7.27;;;6.67;;
2313;SDS011;42279;51.388;7.000;2023-04-24T03:58:02;8.40;;;7.50;;
2313;SDS011;42279;51.388;7.000;2023-04-24T04:00:28;9.30;;;8.40;;
2313;SDS011;42279;51.388;7.000;2023-04-24T04:02:58;7.97;;;7.23;;
2313;SDS011;42279;51.388;7.000;2023-04-24T04:05:24;11.60;;;10.60;;
2313;SDS011;42279;51.388;7.000;2023-04-24T04:07:50;8.17;;;7.40;;
2313;SDS011;42279;51.388;7.000;2023-04-24T04:10:16;8.63;;;8.03;;
2313;SDS011;42279;51.388;7.000;2023-04-24T04:12:42;10.00;;;9.10;;
2313;SDS011;42279;51.388;7.000;2023-04-24T04:15:08;11.47;;;10.47;;
2313;SDS011;42279;51.388;7.000;2023-04-24T04:17:34;10.10;;;8.73;;
2313;SDS011;42279;51.388;7.000;2023-04-24T04:20:00;13.93;;;10.80;;
2313;SDS011;42279;51.388;7.000;2023-04-24T04:22:27;9.43;;;8.40;;
2313;SDS011;42279;51.388;7.000;2023-04-24T04:24:53;11.90;;;10.60;;
2313;SDS011;42279;51.388;7.000;2023-04-24T04:27:19;9.50;;;8.83;;
2313;SDS011;42279;51.388;7.000;2023-04-24T04:29:46;11.40;;;10.50;;
2313;SDS011;42279;51.388;7.000;2023-04-24T04:32:12;12.13;;;8.70;;
2313;SDS011;42279;51.388;7.000;2023-04-24T04:34:38;9.50;;;8.67;;
2313;SDS011;42279;51.388;7.000;2023-04-24T04:37:04;9.43;;;8.63;;
2313;SDS011;42279;51.388;7.000;2023-04-24T04:39:30;8.83;;;8.23;;
2313;SDS011;42279;51.388;7.000;2023-04-24T04:41:56;9.20;;;8.60;;
2313;SDS011;42279;51.388;7.000;2023-04-24T04:44:23;11.00;;;10.10;;
2313;SDS011;42279;51.388;7.000;2023-04-24T04:46:49;10.60;;;9.60;;
2313;SDS011;42279;51.388;7.000;2023-04-24T04:49:18;9.17;;;8.50;;
2313;SDS011;42279;51.388;7.000;2023-04-24T04:51:46;6.97;;;6.57;;
2313;SDS011;42279;51.388;7.000;2023-04-24T04:54:12;6.60;;;6.20;;
2313;SDS011;42279;51.388;7.000;2023-04-24T04:56:38;6.67;;;6.20;;
2313;SDS011;42279;51.388;7.000;2023-04-24T04:59:04;11.03;;;10.00;;
2313;SDS011;42279;51.388;7.000;2023-04-24T05:01:31;9.27;;;8.47;;
2313;SDS011;42279;51.388;7.000;2023-04-24T05:03:57;10.97;;;9.90;;
2313;SDS011;42279;51.388;7.000;2023-04-24T05:06:23;10.10;;;9.27;;
2313;SDS011;42279;51.388;7.000;2023-04-24T05:08:50;7.20;;;6.60;;
2313;SDS011;42279;51.388;7.000;2023-04-24T05:11:16;9.40;;;8.57;;
2313;SDS011;42279;51.388;7.000;2023-04-24T05:13:42;11.17;;;9.50;;
2313;SDS011;42279;51.388;7.000;2023-04-24T05:16:08;13.27;;;8.80;;
2313;SDS011;42279;51.388;7.000;2023-04-24T05:18:34;15.00;;;13.73;;
2313;SDS011;42279;51.388;7.000;2023-04-24T05:21:00;11.53;;;10.57;;
2313;SDS011;42279;51.388;7.000;2023-04-24T05:23:26;12.53;;;11.20;;
2313;SDS011;42279;51.388;7.000;2023-04-24T05:25:52;11.40;;;10.57;;
2313;SDS011;42279;51.388;7.000;2023-04-24T05:28:18;13.13;;;12.07;;
2313;SDS011;42279;51.388;7.000;2023-04-24T05:30:45;13.80;;;12.73;;
2313;SDS011;42279;51.388;7.000;2023-04-24T05:33:11;14.17;;;12.67;;
2313;SDS011;42279;51.388;7.000;2023-04-24T05:35:39;14.93;;;13.53;;
2313;SDS011;42279;51.388;7.000;2023-04-24T05:38:13;15.93;;;14.43;;
2313;SDS011;42279;51.388;7.000;2023-04-24T05:40:42;14.90;;;13.60;;
2313;SDS011;42279;51.388;7.000;2023-04-24T05:43:11;16.43;;;14.83;;
2313;SDS011;42279;51.388;7.000;2023-04-24T05:45:39;9.47;;;8.87;;
2313;SDS011;42279;51.388;7.000;2023-04-24T05:48:05;16.73;;;15.00;;
2313;SDS011;42279;51.388;7.000;2023-04-24T05:50:31;13.67;;;12.57;;
2313;SDS011;42279;51.388;7.000;2023-04-24T05:52:57;15.20;;;13.40;;
2313;SDS011;42279;51.388;7.000;2023-04-24T05:55:24;11.00;;;9.20;;
2313;SDS011;42279;51.388;7.000;2023-04-24T05:57:50;10.57;;;9.77;;
2313;SDS011;42279;51.388;7.000;2023-04-24T06:00:16;10.30;;;9.40;;
2313;SDS011;42279;51.388;7.000;2023-04-24T06:02:44;12.43;;;9.07;;
2313;SDS011;42279;51.388;7.000;2023-04-24T06:05:10;11.30;;;10.37;;
2313;SDS011;42279;51.388;7.000;2023-04-24T06:07:36;9.33;;;8.53;;
2313;SDS011;42279;51.388;7.000;2023-04-24T06:10:02;11.70;;;10.70;;
2313;SDS011;42279;51.388;7.000;2023-04-24T06:12:28;10.83;;;9.80;;
2313;SDS011;42279;51.388;7.000;2023-04-24T06:14:55;8.90;;;8.43;;
2313;SDS011;42279;51.388;7.000;2023-04-24T06:17:21;37.17;;;33.97;;
2313;SDS011;42279;51.388;7.000;2023-04-24T06:19:47;10.63;;;9.93;;
2313;SDS011;42279;51.388;7.000;2023-04-24T06:22:15;9.90;;;8.93;;
2313;SDS011;42279;51.388;7.000;2023-04-24T06:24:41;14.27;;;13.23;;
2313;SDS011;42279;51.388;7.000;2023-04-24T06:27:10;8.63;;;7.97;;
2313;SDS011;42279;51.388;7.000;2023-04-24T06:29:36;13.03;;;12.10;;
2313;SDS011;42279;51.388;7.000;2023-04-24T06:32:02;9.90;;;8.97;;
2313;SDS011;42279;51.388;7.000;2023-04-24T06:34:28;13.60;;;12.37;;
2313;SDS011;42279;51.388;7.000;2023-04-24T06:36:55;24.30;;;18.47;;
2313;SDS011;42279;51.388;7.000;2023-04-24T06:39:24;9.07;;;8.17;;
2313;SDS011;42279;51.388;7.000;2023-04-24T06:42:05;7.47;;;6.80;;
2313;SDS011;42279;51.388;7.000;2023-04-24T06:44:31;16.60;;;9.23;;
2313;SDS011;42279;51.388;7.000;2023-04-24T06:46:57;8.73;;;8.10;;
2313;SDS011;42279;51.388;7.000;2023-04-24T06:49:23;12.75;;;10.48;;
2313;SDS011;42279;51.388;7.000;2023-04-24T06:51:53;8.98;;;8.27;;
2313;SDS011;42279;51.388;7.000;2023-04-24T06:54:25;10.07;;;9.33;;
2313;SDS011;42279;51.388;7.000;2023-04-24T06:57:11;9.10;;;8.30;;
2313;SDS011;42279;51.388;7.000;2023-04-24T06:59:58;6.27;;;5.73;;
2313;SDS011;42279;51.388;7.000;2023-04-24T07:02:59;5.60;;;5.40;;
2313;SDS011;42279;51.388;7.000;2023-04-24T07:05:33;11.57;;;10.60;;
2313;SDS011;42279;51.388;7.000;2023-04-24T07:08:14;7.13;;;6.47;;
2313;SDS011;42279;51.388;7.000;2023-04-24T07:10:42;14.90;;;13.37;;
2313;SDS011;42279;51.388;7.000;2023-04-24T07:13:11;5.00;;;4.80;;
2313;SDS011;42279;51.388;7.000;2023-04-24T07:15:37;6.90;;;6.03;;
2313;SDS011;42279;51.388;7.000;2023-04-24T07:18:04;8.00;;;7.40;;
2313;SDS011;42279;51.388;7.000;2023-04-24T07:20:30;5.43;;;5.13;;
2313;SDS011;42279;51.388;7.000;2023-04-24T07:22:56;3.70;;;3.57;;
2313;SDS011;42279;51.388;7.000;2023-04-24T07:25:22;5.13;;;4.93;;
2313;SDS011;42279;51.388;7.000;2023-04-24T07:27:48;5.83;;;5.43;;
2313;SDS011;42279;51.388;7.000;2023-04-24T07:30:15;2.93;;;2.87;;
2313;SDS011;42279;51.388;7.000;2023-04-24T07:32:41;3.73;;;3.60;;
2313;SDS011;42279;51.388;7.000;2023-04-24T07:35:07;3.10;;;3.00;;
2313;SDS011;42279;51.388;7.000;2023-04-24T07:37:34;3.50;;;3.40;;
2313;SDS011;42279;51.388;7.000;2023-04-24T07:40:00;3.00;;;2.90;;
2313;SDS011;42279;51.388;7.000;2023-04-24T07:42:28;2.67;;;2.67;;
2313;SDS011;42279;51.388;7.000;2023-04-24T07:44:55;2.10;;;2.10;;
2313;SDS011;42279;51.388;7.000;2023-04-24T07:47:21;1.57;;;1.47;;
2313;SDS011;42279;51.388;7.000;2023-04-24T07:49:47;2.03;;;1.13;;
2313;SDS011;42279;51.388;7.000;2023-04-24T07:52:13;1.30;;;1.30;;
2313;SDS011;42279;51.388;7.000;2023-04-24T07:54:39;0.80;;;0.80;;
2313;SDS011;42279;51.388;7.000;2023-04-24T07:57:05;1.50;;;1.50;;
2313;SDS011;42279;51.388;7.000;2023-04-24T07:59:33;1.50;;;1.50;;
2313;SDS011;42279;51.388;7.000;2023-04-24T08:01:59;0.60;;;0.60;;
2313;SDS011;42279;51.388;7.000;2023-04-24T08:04:26;1.60;;;1.60;;
2313;SDS011;42279;51.388;7.000;2023-04-24T08:06:52;1.30;;;1.30;;
2313;SDS011;42279;51.388;7.000;2023-04-24T08:09:18;1.30;;;1.30;;
2313;SDS011;42279;51.388;7.000;2023-04-24T08:11:44;1.43;;;1.43;;
2313;SDS011;42279;51.388;7.000;2023-04-24T08:14:10;2.03;;;1.93;;
2313;SDS011;42279;51.388;7.000;2023-04-24T08:16:38;0.70;;;0.70;;
2313;SDS011;42279;51.388;7.000;2023-04-24T08:19:04;0.90;;;0.90;;
2313;SDS011;42279;51.388;7.000;2023-04-24T08:21:30;1.27;;;1.27;;
2313;SDS011;42279;51.388;7.000;2023-04-24T08:23:56;1.40;;;1.40;;
2313;SDS011;42279;51.388;7.000;2023-04-24T08:26:22;1.30;;;1.30;;
2313;SDS011;42279;51.388;7.000;2023-04-24T08:28:51;1.30;;;1.30;;
2313;SDS011;42279;51.388;7.000;2023-04-24T08:31:17;2.30;;;2.30;;
2313;SDS011;42279;51.388;7.000;2023-04-24T08:33:43;3.70;;;2.20;;
2313;SDS011;42279;51.388;7.000;2023-04-24T08:36:10;2.30;;;2.30;;
2313;SDS011;42279;51.388;7.000;2023-04-24T08:38:36;2.40;;;2.40;;
2313;SDS011;42279;51.388;7.000;2023-04-24T08:41:03;3.10;;;2.90;;
2313;SDS011;42279;51.388;7.000;2023-04-24T08:43:29;2.47;;;2.47;;
2313;SDS011;42279;51.388;7.000;2023-04-24T08:45:59;4.43;;;4.13;;
2313;SDS011;42279;51.388;7.000;2023-04-24T08:48:25;4.03;;;3.73;;
2313;SDS011;42279;51.388;7.000;2023-04-24T08:50:52;4.07;;;3.97;;
2313;SDS011;42279;51.388;7.000;2023-04-24T08:53:18;3.47;;;3.47;;
2313;SDS011;42279;51.388;7.000;2023-04-24T08:55:46;4.20;;;3.90;;
2313;SDS011;42279;51.388;7.000;2023-04-24T08:58:13;3.00;;;2.37;;
2313;SDS011;42279;51.388;7.000;2023-04-24T09:00:39;2.60;;;2.50;;
2313;SDS011;42279;51.388;7.000;2023-04-24T09:03:09;3.33;;;3.23;;
2313;SDS011;42279;51.388;7.000;2023-04-24T09:05:35;3.87;;;3.57;;
2313;SDS011;42279;51.388;7.000;2023-04-24T09:08:01;2.57;;;2.57;;
2313;SDS011;42279;51.388;7.000;2023-04-24T09:10:27;4.17;;;4.07;;
2313;SDS011;42279;51.388;7.000;2023-04-24T09:12:55;2.50;;;2.50;;
2313;SDS011;42279;51.388;7.000;2023-04-24T09:15:23;3.83;;;3.83;;
2313;SDS011;42279;51.388;7.000;2023-04-24T09:17:50;4.03;;;3.70;;
2313;SDS011;42279;51.388;7.000;2023-04-24T09:20:16;2.33;;;2.33;;
2313;SDS011;42279;51.388;7.000;2023-04-24T09:22:42;2.53;;;2.43;;
2313;SDS011;42279;51.388;7.000;2023-04-24T09:25:10;4.23;;;4.10;;
2313;SDS011;42279;51.388;7.000;2023-04-24T09:27:40;5.53;;;5.33;;
2313;SDS011;42279;51.388;7.000;2023-04-24T09:30:07;5.53;;;5.27;;
2313;SDS011;42279;51.388;7.000;2023-04-24T09:32:33;5.30;;;5.00;;
2313;SDS011;42279;51.388;7.000;2023-04-24T09:37:35;4.67;;;4.47;;
2313;SDS011;42279;51.388;7.000;2023-04-24T09:40:08;10.87;;;9.87;;
2313;SDS011;42279;51.388;7.000;2023-04-24T09:42:36;5.30;;;5.00;;
2313;SDS011;42279;51.388;7.000;2023-04-24T09:45:02;6.30;;;5.95;;
2313;SDS011;42279;51.388;7.000;2023-04-24T09:47:35;4.60;;;4.30;;
2313;SDS011;42279;51.388;7.000;2023-04-24T09:50:08;6.73;;;6.37;;
2313;SDS011;42279;51.388;7.000;2023-04-24T09:52:35;5.03;;;4.87;;
2313;SDS011;42279;51.388;7.000;2023-04-24T09:55:00;4.97;;;4.60;;
2313;SDS011;42279;51.388;7.000;2023-04-24T09:57:27;5.77;;;5.37;;
2313;SDS011;42279;51.388;7.000;2023-04-24T09:59:53;6.87;;;6.47;;
2313;SDS011;42279;51.388;7.000;2023-04-24T10:02:22;7.10;;;6.60;;
2313;SDS011;42279;51.388;7.000;2023-04-24T10:04:57;7.07;;;5.70;;
2313;SDS011;42279;51.388;7.000;2023-04-24T10:07:27;8.93;;;6.50;;
2313;SDS011;42279;51.388;7.000;2023-04-24T10:09:53;6.20;;;5.73;;
2313;SDS011;42279;51.388;7.000;2023-04-24T10:12:19;7.87;;;7.27;;
2313;SDS011;42279;51.388;7.000;2023-04-24T10:14:45;7.80;;;7.00;;
2313;SDS011;42279;51.388;7.000;2023-04-24T10:17:12;7.87;;;7.17;;
2313;SDS011;42279;51.388;7.000;2023-04-24T10:19:39;7.23;;;6.73;;
2313;SDS011;42279;51.388;7.000;2023-04-24T10:22:06;7.60;;;5.83;;
2313;SDS011;42279;51.388;7.000;2023-04-24T10:24:33;7.57;;;6.87;;
2313;SDS011;42279;51.388;7.000;2023-04-24T10:27:02;7.33;;;6.20;;
2313;SDS011;42279;51.388;7.000;2023-04-24T10:29:28;7.63;;;7.00;;
2313;SDS011;42279;51.388;7.000;2023-04-24T10:31:56;9.00;;;6.43;;
2313;SDS011;42279;51.388;7.000;2023-04-24T10:34:22;7.17;;;5.50;;
2313;SDS011;42279;51.388;7.000;2023-04-24T10:36:50;8.50;;;7.70;;
2313;SDS011;42279;51.388;7.000;2023-04-24T10:39:17;10.30;;;6.80;;
2313;SDS011;42279;51.388;7.000;2023-04-24T10:41:44;9.80;;;8.33;;
2313;SDS011;42279;51.388;7.000;2023-04-24T10:44:15;7.30;;;6.60;;
2313;SDS011;42279;51.388;7.000;2023-04-24T10:46:45;9.90;;;7.55;;
2313;SDS011;42279;51.388;7.000;2023-04-24T10:49:13;12.70;;;8.38;;
2313;SDS011;42279;51.388;7.000;2023-04-24T10:51:49;9.70;;;7.65;;
2313;SDS011;42279;51.388;7.000;2023-04-24T10:54:22;8.40;;;6.70;;
2313;SDS011;42279;51.388;7.000;2023-04-24T10:59:47;8.35;;;6.90;;
2313;SDS011;42279;51.388;7.000;2023-04-24T11:02:20;8.23;;;6.60;;
2313;SDS011;42279;51.388;7.000;2023-04-24T11:05:03;9.38;;;6.72;;
2313;SDS011;42279;51.388;7.000;2023-04-24T11:08:10;9.83;;;6.10;;
2313;SDS011;42279;51.388;7.000;2023-04-24T11:10:31;8.13;;;6.80;;
2313;SDS011;42279;51.388;7.000;2023-04-24T11:13:16;7.72;;;6.63;;
2313;SDS011;42279;51.388;7.000;2023-04-24T11:15:42;9.70;;;6.10;;
2313;SDS011;42279;51.388;7.000;2023-04-24T11:18:14;7.17;;;5.67;;
2313;SDS011;42279;51.388;7.000;2023-04-24T11:20:44;6.83;;;5.67;;
2313;SDS011;42279;51.388;7.000;2023-04-24T11:23:11;8.27;;;5.73;;
2313;SDS011;42279;51.388;7.000;2023-04-24T11:25:39;13.48;;;6.75;;
2313;SDS011;42279;51.388;7.000;2023-04-24T11:28:05;21.73;;;8.67;;
2313;SDS011;42279;51.388;7.000;2023-04-24T11:30:32;13.60;;;8.40;;
2313;SDS011;42279;51.388;7.000;2023-04-24T11:33:05;8.65;;;7.80;;
2313;SDS011;42279;51.388;7.000;2023-04-24T11:35:34;10.90;;;9.10;;
2313;SDS011;42279;51.388;7.000;2023-04-24T11:38:02;10.02;;;8.57;;
2313;SDS011;42279;51.388;7.000;2023-04-24T11:40:29;10.57;;;7.68;;
2313;SDS011;42279;51.388;7.000;2023-04-24T11:42:55;6.27;;;5.70;;
2313;SDS011;42279;51.388;7.000;2023-04-24T11:45:22;5.30;;;5.03;;
2313;SDS011;42279;51.388;7.000;2023-04-24T11:47:48;7.97;;;7.27;;
2313;SDS011;42279;51.388;7.000;2023-04-24T11:50:16;8.07;;;6.47;;
2313;SDS011;42279;51.388;7.000;2023-04-24T11:52:44;7.73;;;6.93;;
2313;SDS011;42279;51.388;7.000;2023-04-24T11:57:39;7.83;;;5.93;;
2313;SDS011;42279;51.388;7.000;2023-04-24T12:00:14;25.10;;;15.53;;
2313;SDS011;42279;51.388;7.000;2023-04-24T12:02:46;6.40;;;5.20;;
2313;SDS011;42279;51.388;7.000;2023-04-24T12:05:27;8.83;;;7.23;;
2313;SDS011;42279;51.388;7.000;2023-04-24T12:07:59;8.10;;;5.00;;
2313;SDS011;42279;51.388;7.000;2023-04-24T12:10:26;5.53;;;5.00;;
2313;SDS011;42279;51.388;7.000;2023-04-24T12:12:55;4.23;;;3.37;;
2313;SDS011;42279;51.388;7.000;2023-04-24T12:15:24;4.47;;;4.07;;
2313;SDS011;42279;51.388;7.000;2023-04-24T12:17:54;6.83;;;5.27;;
2313;SDS011;42279;51.388;7.000;2023-04-24T12:20:23;14.10;;;4.23;;
2313;SDS011;42279;51.388;7.000;2023-04-24T12:23:01;5.28;;;4.70;;
2313;SDS011;42279;51.388;7.000;2023-04-24T12:25:40;6.10;;;4.10;;
2313;SDS011;42279;51.388;7.000;2023-04-24T12:30:33;6.73;;;5.03;;
2313;SDS011;42279;51.388;7.000;2023-04-24T12:33:02;8.93;;;5.47;;
2313;SDS011;42279;51.388;7.000;2023-04-24T12:35:32;10.53;;;6.40;;
2313;SDS011;42279;51.388;7.000;2023-04-24T12:38:10;7.63;;;3.77;;
2313;SDS011;42279;51.388;7.000;2023-04-24T12:40:40;3.90;;;3.10;;
2313;SDS011;42279;51.388;7.000;2023-04-24T12:43:19;2.30;;;2.30;;
2313;SDS011;42279;51.388;7.000;2023-04-24T12:45:48;5.23;;;3.77;;
2313;SDS011;42279;51.388;7.000;2023-04-24T12:48:14;3.90;;;3.70;;
2313;SDS011;42279;51.388;7.000;2023-04-24T12:50:48;6.00;;;3.30;;
2313;SDS011;42279;51.388;7.000;2023-04-24T12:53:16;3.43;;;3.37;;
2313;SDS011;42279;51.388;7.000;2023-04-24T12:55:45;3.13;;;3.03;;
2313;SDS011;42279;51.388;7.000;2023-04-24T12:58:17;30.47;;;16.03;;
2313;SDS011;42279;51.388;7.000;2023-04-24T13:00:46;3.07;;;2.97;;
2313;SDS011;42279;51.388;7.000;2023-04-24T13:03:15;14.10;;;12.73;;
2313;SDS011;42279;51.388;7.000;2023-04-24T13:05:42;2.33;;;2.23;;
2313;SDS011;42279;51.388;7.000;2023-04-24T13:08:08;5.77;;;3.13;;
2313;SDS011;42279;51.388;7.000;2023-04-24T13:10:34;1.97;;;1.97;;
2313;SDS011;42279;51.388;7.000;2023-04-24T13:13:00;4.07;;;3.70;;
2313;SDS011;42279;51.388;7.000;2023-04-24T13:15:26;2.92;;;2.72;;
2313;SDS011;42279;51.388;7.000;2023-04-24T13:17:52;2.23;;;2.13;;
2313;SDS011;42279;51.388;7.000;2023-04-24T13:20:18;2.73;;;2.53;;
2313;SDS011;42279;51.388;7.000;2023-04-24T13:22:44;3.07;;;2.70;;
2313;SDS011;42279;51.388;7.000;2023-04-24T13:25:10;3.53;;;3.23;;
2313;SDS011;42279;51.388;7.000;2023-04-24T13:27:40;3.00;;;2.80;;
2313;SDS011;42279;51.388;7.000;2023-04-24T13:30:06;3.20;;;3.10;;
2313;SDS011;42279;51.388;7.000;2023-04-24T13:32:32;3.23;;;3.10;;
2313;SDS011;42279;51.388;7.000;2023-04-24T13:35:00;5.03;;;2.77;;
2313;SDS011;42279;51.388;7.000;2023-04-24T13:37:31;3.67;;;2.83;;
2313;SDS011;42279;51.388;7.000;2023-04-24T13:39:57;3.13;;;3.03;;
2313;SDS011;42279;51.388;7.000;2023-04-24T13:42:23;3.13;;;2.30;;
2313;SDS011;42279;51.388;7.000;2023-04-24T13:44:49;1.73;;;1.73;;
2313;SDS011;42279;51.388;7.000;2023-04-24T13:47:16;3.50;;;2.60;;
2313;SDS011;42279;51.388;7.000;2023-04-24T13:49:42;1.80;;;1.70;;
2313;SDS011;42279;51.388;7.000;2023-04-24T13:52:18;2.00;;;1.90;;
2313;SDS011;42279;51.388;7.000;2023-04-24T13:54:44;1.40;;;1.30;;
2313;SDS011;42279;51.388;7.000;2023-04-24T13:57:09;2.53;;;2.43;;
2313;SDS011;42279;51.388;7.000;2023-04-24T13:59:36;3.10;;;1.57;;
2313;SDS011;42279;51.388;7.000;2023-04-24T14:02:02;1.90;;;1.90;;
2313;SDS011;42279;51.388;7.000;2023-04-24T14:04:28;2.63;;;2.43;;
2313;SDS011;42279;51.388;7.000;2023-04-24T14:06:54;2.60;;;1.80;;
2313;SDS011;42279;51.388;7.000;2023-04-24T14:09:20;2.97;;;2.37;;
2313;SDS011;42279;51.388;7.000;2023-04-24T14:11:46;2.13;;;2.13;;
2313;SDS011;42279;51.388;7.000;2023-04-24T14:14:12;3.10;;;3.10;;
2313;SDS011;42279;51.388;7.000;2023-04-24T14:16:38;5.77;;;3.40;;
2313;SDS011;42279;51.388;7.000;2023-04-24T14:19:04;6.17;;;5.77;;
2313;SDS011;42279;51.388;7.000;2023-04-24T14:21:31;3.03;;;2.67;;
2313;SDS011;42279;51.388;7.000;2023-04-24T14:23:57;3.60;;;3.40;;
2313;SDS011;42279;51.388;7.000;2023-04-24T14:26:23;1.90;;;1.80;;
2313;SDS011;42279;51.388;7.000;2023-04-24T14:28:50;2.13;;;2.00;;
2313;SDS011;42279;51.388;7.000;2023-04-24T14:31:17;2.00;;;1.90;;
2313;SDS011;42279;51.388;7.000;2023-04-24T14:33:43;1.80;;;1.30;;
2313;SDS011;42279;51.388;7.000;2023-04-24T14:36:10;1.60;;;1.60;;
2313;SDS011;42279;51.388;7.000;2023-04-24T14:38:36;1.30;;;1.30;;
2313;SDS011;42279;51.388;7.000;2023-04-24T14:41:02;1.40;;;1.40;;
2313;SDS011;42279;51.388;7.000;2023-04-24T14:46:37;1.70;;;1.70;;
2313;SDS011;42279;51.388;7.000;2023-04-24T14:49:05;0.90;;;0.90;;
2313;SDS011;42279;51.388;7.000;2023-04-24T14:51:38;1.30;;;1.30;;
2313;SDS011;42279;51.388;7.000;2023-04-24T14:54:04;1.83;;;1.77;;
2313;SDS011;42279;51.388;7.000;2023-04-24T14:56:32;2.77;;;2.67;;
2313;SDS011;42279;51.388;7.000;2023-04-24T14:58:58;2.13;;;1.83;;
2313;SDS011;42279;51.388;7.000;2023-04-24T15:01:24;2.77;;;1.30;;
2313;SDS011;42279;51.388;7.000;2023-04-24T15:03:51;5.73;;;2.00;;
2313;SDS011;42279;51.388;7.000;2023-04-24T15:06:17;2.57;;;1.40;;
2313;SDS011;42279;51.388;7.000;2023-04-24T15:08:43;1.40;;;1.40;;
2313;SDS011;42279;51.388;7.000;2023-04-24T15:11:10;1.30;;;1.30;;